sensor_id;sensor_type;location;lat;lon;timestamp;pressure;altitude;pressure_sealevel;temperature;humidity
38612;BME280;24368;52.156;20.788;2024-02-21T00:03:52;101086.44;;;4.21;100.00
38612;BME280;24368;52.156;20.788;2024-02-21T00:08:54;101081.06;;;4.25;100.00
38612;BME280;24368;52.156;20.788;2024-02-21T00:13:56;101079.55;;;4.33;100.00
38612;BME280;24368;52.156;20.788;2024-02-21T00:18:58;101082.28;;;4.34;100.00
38612;BME280;24368;52.156;20.788;2024-02-21T00:24:01;101079.50;;;4.34;100.00
38612;BME280;24368;52.156;20.788;2024-02-21T00:29:03;101076.52;;;4.40;100.00
38612;BME280;24368;52.156;20.788;2024-02-21T00:34:05;101073.13;;;4.46;100.00
38612;BME280;24368;52.156;20.788;2024-02-21T00:39:11;101067.94;;;4.45;100.00
38612;BME280;24368;52.156;20.788;2024-02-21T00:44:13;101068.65;;;4.52;100.00
38612;BME280;24368;52.156;20.788;2024-02-21T00:49:15;101067.80;;;4.48;100.00
38612;BME280;24368;52.156;20.788;2024-02-21T00:54:17;101062.96;;;4.49;100.00
38612;BME280;24368;52.156;20.788;2024-02-21T00:59:21;101065.98;;;4.47;100.00
38612;BME280;24368;52.156;20.788;2024-02-21T01:04:23;101057.58;;;4.49;100.00
38612;BME280;24368;52.156;20.788;2024-02-21T01:09:26;101050.42;;;4.49;100.00
38612;BME280;24368;52.156;20.788;2024-02-21T01:14:29;101045.14;;;4.45;100.00
38612;BME280;24368;52.156;20.788;2024-02-21T01:19:31;101036.83;;;4.48;100.00
38612;BME280;24368;52.156;20.788;2024-02-21T01:24:33;101031.91;;;4.51;100.00
38612;BME280;24368;52.156;20.788;2024-02-21T01:29:37;101033.89;;;4.51;100.00
38612;BME280;24368;52.156;20.788;2024-02-21T01:34:40;101034.63;;;4.52;100.00
38612;BME280;24368;52.156;20.788;2024-02-21T01:39:43;101032.84;;;4.51;100.00
38612;BME280;24368;52.156;20.788;2024-02-21T01:44:46;101028.76;;;4.51;100.00
38612;BME280;24368;52.156;20.788;2024-02-21T01:49:49;101028.69;;;4.55;100.00
38612;BME280;24368;52.156;20.788;2024-02-21T01:54:51;101027.18;;;4.58;100.00
38612;BME280;24368;52.156;20.788;2024-02-21T01:59:54;101022.97;;;4.59;100.00
38612;BME280;24368;52.156;20.788;2024-02-21T02:04:56;101021.14;;;4.59;100.00
38612;BME280;24368;52.156;20.788;2024-02-21T02:09:59;101018.52;;;4.63;100.00
38612;BME280;24368;52.156;20.788;2024-02-21T02:15:03;101019.87;;;4.61;100.00
38612;BME280;24368;52.156;20.788;2024-02-21T02:20:09;101015.70;;;4.59;100.00
38612;BME280;24368;52.156;20.788;2024-02-21T02:25:12;101011.92;;;4.61;100.00
38612;BME280;24368;52.156;20.788;2024-02-21T02:30:14;101013.41;;;4.64;100.00
38612;BME280;24368;52.156;20.788;2024-02-21T02:35:17;101007.70;;;4.64;100.00
38612;BME280;24368;52.156;20.788;2024-02-21T02:40:20;101006.66;;;4.66;100.00
38612;BME280;24368;52.156;20.788;2024-02-21T02:45:24;101006.85;;;4.62;100.00
38612;BME280;24368;52.156;20.788;2024-02-21T02:50:28;101002.31;;;4.58;100.00
38612;BME280;24368;52.156;20.788;2024-02-21T02:55:32;101002.93;;;4.61;100.00
38612;BME280;24368;52.156;20.788;2024-02-21T03:00:33;101001.31;;;4.67;100.00
38612;BME280;24368;52.156;20.788;2024-02-21T03:05:38;101005.98;;;4.64;100.00
38612;BME280;24368;52.156;20.788;2024-02-21T03:10:39;101002.03;;;4.61;100.00
38612;BME280;24368;52.156;20.788;2024-02-21T03:15:43;101001.33;;;4.59;100.00
38612;BME280;24368;52.156;20.788;2024-02-21T03:20:45;101004.77;;;4.62;100.00
38612;BME280;24368;52.156;20.788;2024-02-21T03:25:47;101003.14;;;4.59;100.00
38612;BME280;24368;52.156;20.788;2024-02-21T03:30:49;100993.41;;;4.61;100.00
38612;BME280;24368;52.156;20.788;2024-02-21T03:35:51;100995.27;;;4.65;100.00
38612;BME280;24368;52.156;20.788;2024-02-21T03:40:54;100993.32;;;4.63;100.00
38612;BME280;24368;52.156;20.788;2024-02-21T03:45:56;100996.35;;;4.61;100.00
38612;BME280;24368;52.156;20.788;2024-02-21T03:50:58;100997.11;;;4.59;100.00
38612;BME280;24368;52.156;20.788;2024-02-21T03:56:01;100998.52;;;4.59;100.00
38612;BME280;24368;52.156;20.788;2024-02-21T04:01:05;100996.39;;;4.61;100.00
38612;BME280;24368;52.156;20.788;2024-02-21T04:06:07;100993.61;;;4.62;100.00
38612;BME280;24368;52.156;20.788;2024-02-21T04:11:10;100987.71;;;4.59;100.00
38612;BME280;24368;52.156;20.788;2024-02-21T04:16:12;100986.52;;;4.59;100.00
38612;BME280;24368;52.156;20.788;2024-02-21T04:30:38;100970.81;;;4.63;100.00
38612;BME280;24368;52.156;20.788;2024-02-21T04:35:39;100966.55;;;4.67;100.00
38612;BME280;24368;52.156;20.788;2024-02-21T04:40:42;100964.73;;;4.69;100.00
38612;BME280;24368;52.156;20.788;2024-02-21T04:45:43;100963.61;;;4.71;100.00
38612;BME280;24368;52.156;20.788;2024-02-21T04:50:46;100966.25;;;4.73;100.00
38612;BME280;24368;52.156;20.788;2024-02-21T04:55:48;100966.00;;;4.74;100.00
38612;BME280;24368;52.156;20.788;2024-02-21T05:00:52;100964.66;;;4.73;100.00
38612;BME280;24368;52.156;20.788;2024-02-21T05:05:55;100965.98;;;4.74;100.00
38612;BME280;24368;52.156;20.788;2024-02-21T05:15:23;100961.69;;;4.76;100.00
38612;BME280;24368;52.156;20.788;2024-02-21T05:20:25;100963.39;;;4.70;100.00
38612;BME280;24368;52.156;20.788;2024-02-21T05:25:27;100961.38;;;4.71;100.00
38612;BME280;24368;52.156;20.788;2024-02-21T05:30:29;100960.04;;;4.70;100.00
38612;BME280;24368;52.156;20.788;2024-02-21T05:35:31;100956.90;;;4.76;100.00
38612;BME280;24368;52.156;20.788;2024-02-21T05:40:32;100947.17;;;4.76;100.00
38612;BME280;24368;52.156;20.788;2024-02-21T05:45:37;100939.48;;;4.77;100.00
38612;BME280;24368;52.156;20.788;2024-02-21T05:50:39;100932.05;;;4.79;100.00
38612;BME280;24368;52.156;20.788;2024-02-21T05:55:41;100931.95;;;4.79;100.00
38612;BME280;24368;52.156;20.788;2024-02-21T06:00:42;100936.91;;;4.79;100.00
38612;BME280;24368;52.156;20.788;2024-02-21T06:05:43;100941.23;;;4.84;100.00
38612;BME280;24368;52.156;20.788;2024-02-21T06:10:45;100937.35;;;4.90;100.00
38612;BME280;24368;52.156;20.788;2024-02-21T06:15:46;100936.61;;;4.95;100.00
38612;BME280;24368;52.156;20.788;2024-02-21T06:20:48;100935.57;;;4.99;100.00
38612;BME280;24368;52.156;20.788;2024-02-21T06:25:49;100938.38;;;5.05;100.00
38612;BME280;24368;52.156;20.788;2024-02-21T06:30:50;100943.60;;;5.09;100.00
38612;BME280;24368;52.156;20.788;2024-02-21T06:35:51;100943.45;;;5.13;100.00
38612;BME280;24368;52.156;20.788;2024-02-21T06:50:30;100946.29;;;5.29;100.00
38612;BME280;24368;52.156;20.788;2024-02-21T06:55:32;100950.17;;;5.31;100.00
38612;BME280;24368;52.156;20.788;2024-02-21T07:00:34;100954.40;;;5.34;100.00
38612;BME280;24368;52.156;20.788;2024-02-21T07:05:39;100949.55;;;5.37;100.00
38612;BME280;24368;52.156;20.788;2024-02-21T07:10:41;100945.13;;;5.40;100.00
38612;BME280;24368;52.156;20.788;2024-02-21T07:15:43;100943.27;;;5.44;100.00
38612;BME280;24368;52.156;20.788;2024-02-21T07:20:45;100940.77;;;5.45;100.00
38612;BME280;24368;52.156;20.788;2024-02-21T07:25:47;100933.33;;;5.49;100.00
38612;BME280;24368;52.156;20.788;2024-02-21T07:30:51;100931.58;;;5.53;100.00
38612;BME280;24368;52.156;20.788;2024-02-21T07:35:53;100930.41;;;5.56;100.00
38612;BME280;24368;52.156;20.788;2024-02-21T07:40:55;100922.59;;;5.63;100.00
38612;BME280;24368;52.156;20.788;2024-02-21T07:45:57;100918.77;;;5.70;100.00
38612;BME280;24368;52.156;20.788;2024-02-21T07:51:00;100907.10;;;5.76;100.00
38612;BME280;24368;52.156;20.788;2024-02-21T07:56:02;100896.88;;;5.82;100.00
38612;BME280;24368;52.156;20.788;2024-02-21T08:01:05;100886.29;;;5.83;100.00
38612;BME280;24368;52.156;20.788;2024-02-21T08:06:11;100885.36;;;5.94;100.00
38612;BME280;24368;52.156;20.788;2024-02-21T08:11:14;100881.58;;;5.99;100.00
38612;BME280;24368;52.156;20.788;2024-02-21T08:16:16;100873.59;;;6.01;100.00
38612;BME280;24368;52.156;20.788;2024-02-21T08:29:43;100867.41;;;6.29;100.00
38612;BME280;24368;52.156;20.788;2024-02-21T08:34:45;100862.54;;;6.42;100.00
38612;BME280;24368;52.156;20.788;2024-02-21T08:39:47;100864.98;;;6.49;100.00
38612;BME280;24368;52.156;20.788;2024-02-21T08:44:48;100858.77;;;6.51;100.00
38612;BME280;24368;52.156;20.788;2024-02-21T08:49:51;100861.34;;;6.60;100.00
38612;BME280;24368;52.156;20.788;2024-02-21T08:54:52;100861.97;;;6.70;100.00
38612;BME280;24368;52.156;20.788;2024-02-21T08:59:54;100856.34;;;6.70;100.00
38612;BME280;24368;52.156;20.788;2024-02-21T09:04:55;100849.73;;;6.72;100.00
38612;BME280;24368;52.156;20.788;2024-02-21T09:09:57;100844.86;;;6.69;100.00
38612;BME280;24368;52.156;20.788;2024-02-21T09:14:59;100841.83;;;6.74;100.00
38612;BME280;24368;52.156;20.788;2024-02-21T09:20:00;100840.87;;;6.73;100.00
38612;BME280;24368;52.156;20.788;2024-02-21T09:25:04;100841.84;;;6.68;100.00
38612;BME280;24368;52.156;20.788;2024-02-21T09:30:06;100841.63;;;6.74;100.00
38612;BME280;24368;52.156;20.788;2024-02-21T09:35:08;100838.89;;;6.82;100.00
38612;BME280;24368;52.156;20.788;2024-02-21T09:40:10;100833.38;;;6.88;100.00
38612;BME280;24368;52.156;20.788;2024-02-21T09:45:21;100834.05;;;6.92;100.00
38612;BME280;24368;52.156;20.788;2024-02-21T09:50:26;100830.30;;;7.04;100.00
38612;BME280;24368;52.156;20.788;2024-02-21T09:55:27;100827.27;;;7.15;100.00
38612;BME280;24368;52.156;20.788;2024-02-21T10:00:30;100831.23;;;7.20;100.00
38612;BME280;24368;52.156;20.788;2024-02-21T10:05:33;100824.73;;;7.17;100.00
38612;BME280;24368;52.156;20.788;2024-02-21T10:10:44;100816.42;;;7.27;100.00
38612;BME280;24368;52.156;20.788;2024-02-21T10:15:46;100812.23;;;7.35;100.00
38612;BME280;24368;52.156;20.788;2024-02-21T10:21:02;100806.82;;;7.39;100.00
38612;BME280;24368;52.156;20.788;2024-02-21T10:26:08;100804.40;;;7.41;100.00
38612;BME280;24368;52.156;20.788;2024-02-21T10:31:10;100796.08;;;7.44;100.00
38612;BME280;24368;52.156;20.788;2024-02-21T10:36:13;100800.99;;;7.46;100.00
38612;BME280;24368;52.156;20.788;2024-02-21T10:41:20;100793.30;;;7.45;100.00
38612;BME280;24368;52.156;20.788;2024-02-21T10:46:23;100794.08;;;7.50;100.00
38612;BME280;24368;52.156;20.788;2024-02-21T10:51:31;100784.37;;;7.44;100.00
38612;BME280;24368;52.156;20.788;2024-02-21T11:02:12;100771.56;;;7.44;100.00
38612;BME280;24368;52.156;20.788;2024-02-21T11:07:15;100761.11;;;7.54;100.00
38612;BME280;24368;52.156;20.788;2024-02-21T11:12:20;100756.05;;;7.54;100.00
38612;BME280;24368;52.156;20.788;2024-02-21T11:17:24;100753.82;;;7.48;100.00
38612;BME280;24368;52.156;20.788;2024-02-21T11:22:28;100750.89;;;7.36;100.00
38612;BME280;24368;52.156;20.788;2024-02-21T11:27:33;100738.50;;;7.32;100.00
38612;BME280;24368;52.156;20.788;2024-02-21T11:32:35;100729.73;;;7.29;100.00
38612;BME280;24368;52.156;20.788;2024-02-21T11:37:36;100732.85;;;7.25;100.00
38612;BME280;24368;52.156;20.788;2024-02-21T11:42:38;100733.27;;;7.18;100.00
38612;BME280;24368;52.156;20.788;2024-02-21T11:47:42;100726.89;;;7.14;100.00
38612;BME280;24368;52.156;20.788;2024-02-21T11:52:44;100722.68;;;7.11;100.00
38612;BME280;24368;52.156;20.788;2024-02-21T11:57:48;100717.34;;;7.11;100.00
38612;BME280;24368;52.156;20.788;2024-02-21T12:02:50;100713.31;;;7.15;100.00
38612;BME280;24368;52.156;20.788;2024-02-21T12:07:52;100704.82;;;7.14;100.00
38612;BME280;24368;52.156;20.788;2024-02-21T12:13:06;100701.33;;;7.14;100.00
38612;BME280;24368;52.156;20.788;2024-02-21T12:18:10;100700.39;;;7.15;100.00
38612;BME280;24368;52.156;20.788;2024-02-21T12:23:14;100699.91;;;7.20;100.00
38612;BME280;24368;52.156;20.788;2024-02-21T12:28:18;100697.30;;;7.16;100.00
38612;BME280;24368;52.156;20.788;2024-02-21T12:33:19;100691.96;;;7.14;100.00
38612;BME280;24368;52.156;20.788;2024-02-21T12:38:21;100687.34;;;7.12;100.00
38612;BME280;24368;52.156;20.788;2024-02-21T12:43:23;100675.27;;;7.13;100.00
38612;BME280;24368;52.156;20.788;2024-02-21T12:48:25;100667.42;;;7.15;100.00
38612;BME280;24368;52.156;20.788;2024-02-21T12:53:28;100662.76;;;7.16;100.00
38612;BME280;24368;52.156;20.788;2024-02-21T12:58:30;100660.27;;;7.14;100.00
38612;BME280;24368;52.156;20.788;2024-02-21T13:03:35;100654.02;;;7.13;100.00
38612;BME280;24368;52.156;20.788;2024-02-21T13:08:37;100647.53;;;7.13;100.00
38612;BME280;24368;52.156;20.788;2024-02-21T13:13:40;100641.16;;;7.12;100.00
38612;BME280;24368;52.156;20.788;2024-02-21T13:18:41;100637.55;;;7.09;100.00
38612;BME280;24368;52.156;20.788;2024-02-21T13:23:44;100632.60;;;7.08;100.00
38612;BME280;24368;52.156;20.788;2024-02-21T13:28:45;100624.67;;;7.07;100.00
38612;BME280;24368;52.156;20.788;2024-02-21T13:33:49;100617.45;;;7.07;100.00
38612;BME280;24368;52.156;20.788;2024-02-21T13:38:51;100602.98;;;7.07;100.00
38612;BME280;24368;52.156;20.788;2024-02-21T13:43:54;100593.61;;;7.06;100.00
38612;BME280;24368;52.156;20.788;2024-02-21T13:49:03;100585.42;;;7.04;100.00
38612;BME280;24368;52.156;20.788;2024-02-21T13:54:10;100570.16;;;7.04;100.00
38612;BME280;24368;52.156;20.788;2024-02-21T13:59:12;100554.42;;;7.00;100.00
38612;BME280;24368;52.156;20.788;2024-02-21T14:04:17;100549.07;;;6.97;100.00
38612;BME280;24368;52.156;20.788;2024-02-21T14:09:19;100540.98;;;6.97;100.00
38612;BME280;24368;52.156;20.788;2024-02-21T14:14:20;100543.66;;;6.94;100.00
38612;BME280;24368;52.156;20.788;2024-02-21T14:19:22;100533.54;;;6.95;100.00
38612;BME280;24368;52.156;20.788;2024-02-21T14:24:24;100531.98;;;6.98;100.00
38612;BME280;24368;52.156;20.788;2024-02-21T14:29:25;100535.02;;;7.02;100.00
38612;BME280;24368;52.156;20.788;2024-02-21T14:34:27;100538.28;;;7.00;100.00
38612;BME280;24368;52.156;20.788;2024-02-21T14:39:29;100525.49;;;7.03;100.00
38612;BME280;24368;52.156;20.788;2024-02-21T14:44:34;100515.40;;;7.03;100.00
38612;BME280;24368;52.156;20.788;2024-02-21T14:49:36;100508.25;;;7.01;100.00
38612;BME280;24368;52.156;20.788;2024-02-21T14:54:38;100507.08;;;7.07;100.00
38612;BME280;24368;52.156;20.788;2024-02-21T14:59:42;100502.00;;;7.03;100.00
38612;BME280;24368;52.156;20.788;2024-02-21T15:04:43;100504.59;;;6.98;100.00
38612;BME280;24368;52.156;20.788;2024-02-21T15:09:45;100504.12;;;6.96;100.00
38612;BME280;24368;52.156;20.788;2024-02-21T15:14:46;100503.57;;;6.95;100.00
38612;BME280;24368;52.156;20.788;2024-02-21T15:19:48;100506.27;;;7.05;100.00
38612;BME280;24368;52.156;20.788;2024-02-21T15:24:53;100505.98;;;7.03;100.00
38612;BME280;24368;52.156;20.788;2024-02-21T15:29:54;100502.34;;;7.08;100.00
38612;BME280;24368;52.156;20.788;2024-02-21T15:34:58;100489.02;;;7.00;100.00
38612;BME280;24368;52.156;20.788;2024-02-21T15:40:00;100487.73;;;6.98;100.00
38612;BME280;24368;52.156;20.788;2024-02-21T15:45:02;100490.09;;;6.99;100.00
38612;BME280;24368;52.156;20.788;2024-02-21T15:50:08;100484.48;;;6.98;100.00
38612;BME280;24368;52.156;20.788;2024-02-21T15:55:11;100484.45;;;7.00;100.00
38612;BME280;24368;52.156;20.788;2024-02-21T16:00:14;100483.30;;;7.01;100.00
38612;BME280;24368;52.156;20.788;2024-02-21T16:05:16;100481.64;;;7.01;100.00
38612;BME280;24368;52.156;20.788;2024-02-21T16:10:18;100478.46;;;7.00;100.00
38612;BME280;24368;52.156;20.788;2024-02-21T16:15:20;100480.95;;;6.98;100.00
38612;BME280;24368;52.156;20.788;2024-02-21T16:20:21;100474.98;;;6.95;100.00
38612;BME280;24368;52.156;20.788;2024-02-21T16:25:23;100477.85;;;6.91;100.00
38612;BME280;24368;52.156;20.788;2024-02-21T16:30:24;100473.27;;;6.90;100.00
38612;BME280;24368;52.156;20.788;2024-02-21T16:35:26;100468.61;;;6.88;100.00
38612;BME280;24368;52.156;20.788;2024-02-21T16:40:30;100468.17;;;6.85;100.00
38612;BME280;24368;52.156;20.788;2024-02-21T16:45:32;100465.92;;;6.86;100.00
38612;BME280;24368;52.156;20.788;2024-02-21T16:50:34;100460.05;;;6.86;100.00
38612;BME280;24368;52.156;20.788;2024-02-21T16:55:36;100457.70;;;6.86;100.00
38612;BME280;24368;52.156;20.788;2024-02-21T17:00:38;100460.66;;;6.82;100.00
38612;BME280;24368;52.156;20.788;2024-02-21T17:05:40;100462.65;;;6.84;100.00
38612;BME280;24368;52.156;20.788;2024-02-21T17:10:41;100460.00;;;6.82;100.00
38612;BME280;24368;52.156;20.788;2024-02-21T17:15:43;100462.42;;;6.82;100.00
38612;BME280;24368;52.156;20.788;2024-02-21T17:20:45;100460.80;;;6.81;100.00
38612;BME280;24368;52.156;20.788;2024-02-21T17:25:49;100458.29;;;6.80;100.00
38612;BME280;24368;52.156;20.788;2024-02-21T17:30:51;100459.88;;;6.81;100.00
38612;BME280;24368;52.156;20.788;2024-02-21T17:35:52;100456.38;;;6.81;100.00
38612;BME280;24368;52.156;20.788;2024-02-21T17:40:54;100454.33;;;6.80;100.00
38612;BME280;24368;52.156;20.788;2024-02-21T17:45:59;100449.98;;;6.81;100.00
38612;BME280;24368;52.156;20.788;2024-02-21T17:51:01;100451.24;;;6.79;100.00
38612;BME280;24368;52.156;20.788;2024-02-21T17:59:52;100439.73;;;6.84;100.00
38612;BME280;24368;52.156;20.788;2024-02-21T18:04:55;100444.56;;;6.83;100.00
38612;BME280;24368;52.156;20.788;2024-02-21T18:09:57;100443.77;;;6.82;100.00
38612;BME280;24368;52.156;20.788;2024-02-21T18:14:59;100441.15;;;6.79;100.00
38612;BME280;24368;52.156;20.788;2024-02-21T18:20:03;100435.50;;;6.76;100.00
38612;BME280;24368;52.156;20.788;2024-02-21T18:25:08;100430.30;;;6.77;100.00
38612;BME280;24368;52.156;20.788;2024-02-21T18:30:10;100433.02;;;6.82;100.00
38612;BME280;24368;52.156;20.788;2024-02-21T18:35:13;100427.39;;;6.86;100.00
38612;BME280;24368;52.156;20.788;2024-02-21T18:40:16;100421.05;;;6.85;100.00
38612;BME280;24368;52.156;20.788;2024-02-21T18:45:19;100414.27;;;6.74;100.00
38612;BME280;24368;52.156;20.788;2024-02-21T18:50:21;100411.23;;;6.74;100.00
38612;BME280;24368;52.156;20.788;2024-02-21T18:55:24;100412.73;;;6.72;100.00
38612;BME280;24368;52.156;20.788;2024-02-21T19:00:26;100410.04;;;6.71;100.00
38612;BME280;24368;52.156;20.788;2024-02-21T19:15:13;100401.44;;;6.74;100.00
38612;BME280;24368;52.156;20.788;2024-02-21T19:20:15;100389.72;;;6.71;100.00
38612;BME280;24368;52.156;20.788;2024-02-21T19:25:17;100384.42;;;6.67;100.00
38612;BME280;24368;52.156;20.788;2024-02-21T19:30:20;100379.25;;;6.67;100.00
38612;BME280;24368;52.156;20.788;2024-02-21T20:01:47;100355.45;;;6.61;100.00
38612;BME280;24368;52.156;20.788;2024-02-21T20:06:48;100350.84;;;6.60;100.00
